createdAt,value
2022-09-30T00:00:54.235Z,90.22
2022-09-30T00:01:54.275Z,90.32
2022-09-30T00:02:54.247Z,90.13
2022-09-30T00:03:54.219Z,89.98
2022-09-30T00:04:54.230Z,90.03
2022-09-30T00:05:54.220Z,90.32
2022-09-30T00:06:54.214Z,89.65
2022-09-30T00:07:54.207Z,89.94
2022-09-30T00:08:54.205Z,89.94
2022-09-30T00:09:54.319Z,89.94
2022-09-30T00:10:54.196Z,89.84
2022-09-30T00:11:54.190Z,89.75
2022-09-30T00:12:54.175Z,89.94
2022-09-30T00:13:54.172Z,89.75
2022-09-30T00:14:54.183Z,89.65
2022-09-30T00:15:54.202Z,89.65
2022-09-30T00:16:54.159Z,89.56
2022-09-30T00:17:54.151Z,89.75
2022-09-30T00:18:54.172Z,89.94
2022-09-30T00:19:54.793Z,89.94
2022-09-30T00:20:54.138Z,89.65
2022-09-30T00:21:54.135Z,89.94
2022-09-30T00:22:54.122Z,89.94
2022-09-30T00:23:54.119Z,89.75
2022-09-30T00:24:54.110Z,89.84
2022-09-30T00:25:54.117Z,89.94
2022-09-30T00:26:54.124Z,90.03
2022-09-30T00:27:54.094Z,89.94
2022-09-30T00:28:54.094Z,89.94
2022-09-30T00:29:54.089Z,89.94
2022-09-30T00:30:54.086Z,89.94
2022-09-30T00:31:54.178Z,89.65
2022-09-30T00:32:54.077Z,90.32
2022-09-30T00:33:54.070Z,90.03
2022-09-30T00:34:54.079Z,89.84
2022-09-30T00:35:54.075Z,90.51
2022-09-30T00:36:54.057Z,90.51
2022-09-30T00:37:54.043Z,90.22
2022-09-30T00:38:54.041Z,90.51
2022-09-30T00:39:54.039Z,90.32
2022-09-30T00:40:54.058Z,90.80
2022-09-30T00:41:54.040Z,89.84
2022-09-30T00:42:54.039Z,90.13
2022-09-30T00:43:54.023Z,90.03
2022-09-30T00:44:54.011Z,89.94
2022-09-30T00:45:54.712Z,90.13
2022-09-30T00:46:54.784Z,90.32
2022-09-30T00:47:54.001Z,90.22
2022-09-30T00:48:54.056Z,90.32
2022-09-30T00:49:53.987Z,90.13
2022-09-30T00:50:53.987Z,90.13
2022-09-30T00:51:54.002Z,90.32
2022-09-30T00:52:53.973Z,90.13
2022-09-30T00:53:54.712Z,90.13
2022-09-30T00:54:53.958Z,90.13
2022-09-30T00:55:53.954Z,90.13
2022-09-30T00:56:53.947Z,90.32
2022-09-30T00:57:55.244Z,90.32
2022-09-30T00:58:53.948Z,90.32
2022-09-30T00:59:53.938Z,90.03
2022-09-30T01:00:54.003Z,90.18
2022-09-30T01:01:54.870Z,90.13
2022-09-30T01:02:53.922Z,89.84
2022-09-30T01:03:53.920Z,90.70
2022-09-30T01:04:53.907Z,90.28
2022-09-30T01:05:53.901Z,90.51
2022-09-30T01:06:54.059Z,90.70
2022-09-30T01:07:53.899Z,90.51
2022-09-30T01:08:53.891Z,90.99
2022-09-30T01:09:54.991Z,90.89
2022-09-30T01:10:53.880Z,90.80
2022-09-30T01:11:53.868Z,90.80
2022-09-30T01:12:53.873Z,90.99
2022-09-30T01:13:53.860Z,90.80
2022-09-30T01:14:53.853Z,90.99
2022-09-30T01:15:53.919Z,90.94
2022-09-30T01:16:53.855Z,90.84
2022-09-30T01:17:53.838Z,90.70
2022-09-30T01:18:53.830Z,90.66
2022-09-30T01:19:53.827Z,90.32
2022-09-30T01:20:53.828Z,90.42
2022-09-30T01:21:53.814Z,90.89
2022-09-30T01:22:53.822Z,90.89
2022-09-30T01:23:53.813Z,90.75
2022-09-30T01:24:53.832Z,90.99
2022-09-30T01:25:53.860Z,91.17
2022-09-30T01:26:53.804Z,91.17
2022-09-30T01:27:53.852Z,91.13
2022-09-30T01:28:53.794Z,91.27
2022-09-30T01:29:53.783Z,91.08
2022-09-30T01:30:53.768Z,90.89
2022-09-30T01:31:53.838Z,91.08
2022-09-30T01:32:53.781Z,90.94
2022-09-30T01:33:53.764Z,90.99
2022-09-30T01:34:53.754Z,90.99
2022-09-30T01:35:53.738Z,90.89
2022-09-30T01:36:53.736Z,90.94
2022-09-30T01:37:53.729Z,90.84
2022-09-30T01:38:53.746Z,90.75
2022-09-30T01:39:53.732Z,90.75
2022-09-30T01:40:53.723Z,90.84
2022-09-30T01:41:53.719Z,90.75
2022-09-30T01:42:53.705Z,90.89
2022-09-30T01:43:53.762Z,90.37
2022-09-30T01:44:53.698Z,90.32
2022-09-30T01:45:53.694Z,90.47
2022-09-30T01:46:53.740Z,90.61
2022-09-30T01:47:53.678Z,90.37
2022-09-30T01:48:53.684Z,90.66
2022-09-30T01:49:53.679Z,90.56
2022-09-30T01:50:53.669Z,90.47
2022-09-30T01:51:53.673Z,90.66
2022-09-30T01:52:53.657Z,90.66
2022-09-30T01:53:53.656Z,90.08
2022-09-30T01:54:53.654Z,90.47
2022-09-30T01:55:53.640Z,90.08
2022-09-30T01:56:53.654Z,90.28
2022-09-30T01:57:53.628Z,90.37
2022-09-30T01:58:53.625Z,90.56
2022-09-30T01:59:53.642Z,90.66
2022-09-30T02:00:53.690Z,90.75
2022-09-30T02:01:53.633Z,90.84
2022-09-30T02:02:53.603Z,91.27
2022-09-30T02:03:53.598Z,91.22
2022-09-30T02:04:53.607Z,91.42
2022-09-30T02:05:53.588Z,90.84
2022-09-30T02:06:53.594Z,90.84
2022-09-30T02:07:53.570Z,90.84
2022-09-30T02:08:53.572Z,90.84
2022-09-30T02:09:53.607Z,90.99
2022-09-30T02:10:53.595Z,90.47
2022-09-30T02:11:53.551Z,90.75
2022-09-30T02:12:53.544Z,90.47
2022-09-30T02:13:53.556Z,90.18
2022-09-30T02:14:53.547Z,89.89
2022-09-30T02:15:53.568Z,90.28
2022-09-30T02:16:53.546Z,90.18
2022-09-30T02:17:53.528Z,90.28
2022-09-30T02:18:53.520Z,90.18
2022-09-30T02:19:53.514Z,90.75
2022-09-30T02:20:53.508Z,90.66
2022-09-30T02:21:53.555Z,90.18
2022-09-30T02:22:53.505Z,90.56
2022-09-30T02:23:53.489Z,90.56
2022-09-30T02:24:53.508Z,90.66
2022-09-30T02:25:53.492Z,90.47
2022-09-30T02:26:53.539Z,90.66
2022-09-30T02:27:53.478Z,90.94
2022-09-30T02:28:53.463Z,90.66
2022-09-30T02:29:53.459Z,90.66
2022-09-30T02:30:53.451Z,91.13
2022-09-30T02:31:53.526Z,91.13
2022-09-30T02:32:53.433Z,91.03
2022-09-30T02:33:53.434Z,90.94
2022-09-30T02:34:53.436Z,90.94
2022-09-30T02:35:53.426Z,90.84
2022-09-30T02:36:53.429Z,91.22
2022-09-30T02:37:54.753Z,90.94
2022-09-30T02:38:53.406Z,91.03
2022-09-30T02:39:53.413Z,90.94
2022-09-30T02:40:53.392Z,90.94
2022-09-30T02:41:53.414Z,90.37
2022-09-30T02:42:53.388Z,90.47
2022-09-30T02:43:53.415Z,90.37
2022-09-30T02:44:53.373Z,90.37
2022-09-30T02:45:53.362Z,90.47
2022-09-30T02:46:53.419Z,90.37
2022-09-30T02:47:53.352Z,90.47
2022-09-30T02:48:53.375Z,90.56
2022-09-30T02:49:53.356Z,90.66
2022-09-30T02:50:54.247Z,90.47
2022-09-30T02:51:53.347Z,90.28
2022-09-30T02:52:53.325Z,90.75
2022-09-30T02:53:53.325Z,90.75
2022-09-30T02:54:53.322Z,90.94
2022-09-30T02:55:53.322Z,90.94
2022-09-30T02:56:53.311Z,91.03
2022-09-30T02:57:53.313Z,90.94
2022-09-30T02:58:53.297Z,91.42
2022-09-30T02:59:53.306Z,90.94
2022-09-30T03:00:53.319Z,90.66
2022-09-30T03:01:53.314Z,90.94
2022-09-30T03:02:53.278Z,91.42
2022-09-30T03:03:53.272Z,91.13
2022-09-30T03:04:53.264Z,90.84
2022-09-30T03:05:53.261Z,90.94
2022-09-30T03:06:53.255Z,90.75
2022-09-30T03:07:53.276Z,91.03
2022-09-30T03:08:53.249Z,91.22
2022-09-30T03:09:53.233Z,91.32
2022-09-30T03:10:55.285Z,90.94
2022-09-30T03:11:53.222Z,91.03
2022-09-30T03:12:53.219Z,91.03
2022-09-30T03:13:53.217Z,90.84
2022-09-30T03:14:53.218Z,90.94
2022-09-30T03:15:53.264Z,90.80
2022-09-30T03:16:53.189Z,90.84
2022-09-30T03:17:53.193Z,91.03
2022-09-30T03:18:53.257Z,90.66
2022-09-30T03:19:53.185Z,91.13
2022-09-30T03:20:53.175Z,90.70
2022-09-30T03:21:53.174Z,91.66
2022-09-30T03:22:53.163Z,91.18
2022-09-30T03:23:53.166Z,91.37
2022-09-30T03:24:53.156Z,91.28
2022-09-30T03:25:53.157Z,91.51
2022-09-30T03:26:53.138Z,91.22
2022-09-30T03:27:53.131Z,91.18
2022-09-30T03:28:53.128Z,91.66
2022-09-30T03:29:53.122Z,91.37
2022-09-30T03:30:53.117Z,91.28
2022-09-30T03:31:53.165Z,91.70
2022-09-30T03:32:53.180Z,91.51
2022-09-30T03:33:53.105Z,91.47
2022-09-30T03:34:53.091Z,90.84
2022-09-30T03:35:53.100Z,91.08
2022-09-30T03:36:53.102Z,90.94
2022-09-30T03:37:53.082Z,90.70
2022-09-30T03:38:53.073Z,91.18
2022-09-30T03:39:53.077Z,90.89
2022-09-30T03:40:53.070Z,90.70
2022-09-30T03:41:53.055Z,90.89
2022-09-30T03:42:53.058Z,90.61
2022-09-30T03:43:53.049Z,90.61
2022-09-30T03:44:53.053Z,91.28
2022-09-30T03:45:53.047Z,90.89
2022-09-30T03:46:53.068Z,91.37
2022-09-30T03:47:53.019Z,90.80
2022-09-30T03:48:53.026Z,90.70
2022-09-30T03:49:53.037Z,91.66
2022-09-30T03:50:53.017Z,91.66
2022-09-30T03:51:52.999Z,91.56
2022-09-30T03:52:52.994Z,91.08
2022-09-30T03:53:52.994Z,91.28
2022-09-30T03:54:53.041Z,91.28
2022-09-30T03:55:52.976Z,91.32
2022-09-30T03:56:52.971Z,91.37
2022-09-30T03:57:53.743Z,91.28
2022-09-30T03:58:53.801Z,91.37
2022-09-30T03:59:52.952Z,91.47
2022-09-30T04:00:53.103Z,90.99
2022-09-30T04:01:53.011Z,91.18
2022-09-30T04:02:57.659Z,91.56
2022-09-30T04:03:52.938Z,91.56
2022-09-30T04:04:52.932Z,91.28
2022-09-30T04:05:52.950Z,91.47
2022-09-30T04:06:54.012Z,91.47
2022-09-30T04:07:52.901Z,91.51
2022-09-30T04:08:52.902Z,91.22
2022-09-30T04:09:52.899Z,91.18
2022-09-30T04:10:52.904Z,91.66
2022-09-30T04:11:52.897Z,90.70
2022-09-30T04:12:52.886Z,90.99
2022-09-30T04:13:52.870Z,90.89
2022-09-30T04:14:52.861Z,90.61
2022-09-30T04:15:52.906Z,91.47
2022-09-30T04:16:54.084Z,90.70
2022-09-30T04:17:52.855Z,90.89
2022-09-30T04:18:52.858Z,91.47
2022-09-30T04:19:52.845Z,91.66
2022-09-30T04:20:52.850Z,91.37
2022-09-30T04:21:52.835Z,91.28
2022-09-30T04:22:52.894Z,91.37
2022-09-30T04:23:52.812Z,91.28
2022-09-30T04:24:52.837Z,91.28
2022-09-30T04:25:52.804Z,91.37
2022-09-30T04:26:52.816Z,91.37
2022-09-30T04:27:52.818Z,91.28
2022-09-30T04:28:52.784Z,91.47
2022-09-30T04:29:52.787Z,91.18
2022-09-30T04:30:52.798Z,91.37
2022-09-30T04:31:52.840Z,91.18
2022-09-30T04:32:52.780Z,91.08
2022-09-30T04:33:52.786Z,91.28
2022-09-30T04:34:52.751Z,91.28
2022-09-30T04:35:52.754Z,91.18
2022-09-30T04:36:52.754Z,91.18
2022-09-30T04:37:52.753Z,91.37
2022-09-30T04:38:52.881Z,90.80
2022-09-30T04:39:52.830Z,90.80
2022-09-30T04:40:52.748Z,91.18
2022-09-30T04:41:52.723Z,91.18
2022-09-30T04:42:52.725Z,91.28
2022-09-30T04:43:52.708Z,91.37
2022-09-30T04:44:52.699Z,91.28
2022-09-30T04:45:52.847Z,91.37
2022-09-30T04:46:52.688Z,91.37
2022-09-30T04:47:52.673Z,91.37
2022-09-30T04:48:52.674Z,90.89
2022-09-30T04:49:52.671Z,90.89
2022-09-30T04:50:52.738Z,91.08
2022-09-30T04:51:52.670Z,91.28
2022-09-30T04:52:52.651Z,90.89
2022-09-30T04:53:52.660Z,90.80
2022-09-30T04:54:52.644Z,90.80
2022-09-30T04:55:52.704Z,90.99
2022-09-30T04:56:52.635Z,90.80
2022-09-30T04:57:52.625Z,91.08
2022-09-30T04:58:52.619Z,90.99
2022-09-30T04:59:52.625Z,90.89
2022-09-30T05:00:52.663Z,90.89
2022-09-30T05:01:52.749Z,90.89
2022-09-30T05:02:53.246Z,90.80
2022-09-30T05:03:52.594Z,90.89
2022-09-30T05:04:52.583Z,91.37
2022-09-30T05:05:52.570Z,91.28
2022-09-30T05:06:52.578Z,90.89
2022-09-30T05:07:52.578Z,91.08
2022-09-30T05:08:52.567Z,90.89
2022-09-30T05:09:52.573Z,91.28
2022-09-30T05:10:52.580Z,90.70
2022-09-30T05:11:52.550Z,90.61
2022-09-30T05:12:52.563Z,90.70
2022-09-30T05:13:52.531Z,91.28
2022-09-30T05:14:52.526Z,90.89
2022-09-30T05:15:52.555Z,90.89
2022-09-30T05:16:52.535Z,90.99
2022-09-30T05:17:52.544Z,91.28
2022-09-30T05:18:52.495Z,91.18
2022-09-30T05:19:52.493Z,91.56
2022-09-30T05:20:52.491Z,91.37
2022-09-30T05:21:52.479Z,91.47
2022-09-30T05:22:52.471Z,91.37
2022-09-30T05:23:52.480Z,91.18
2022-09-30T05:24:52.471Z,91.18
2022-09-30T05:25:52.453Z,91.56
2022-09-30T05:26:52.502Z,91.08
2022-09-30T05:27:52.448Z,91.37
2022-09-30T05:28:52.449Z,90.70
2022-09-30T05:29:52.429Z,90.70
2022-09-30T05:30:52.452Z,90.80
2022-09-30T05:31:52.468Z,91.28
2022-09-30T05:32:52.418Z,91.37
2022-09-30T05:33:57.172Z,90.89
2022-09-30T05:34:52.403Z,91.37
2022-09-30T05:35:52.411Z,91.47
2022-09-30T05:36:52.400Z,90.80
2022-09-30T05:37:52.385Z,90.89
2022-09-30T05:38:52.396Z,90.89
2022-09-30T05:39:52.419Z,90.89
2022-09-30T05:40:52.385Z,90.99
2022-09-30T05:41:52.503Z,92.89
2022-09-30T05:42:52.357Z,97.13
2022-09-30T05:43:52.346Z,99.99
2022-09-30T05:44:52.350Z,99.99
2022-09-30T05:45:52.341Z,99.99
2022-09-30T05:46:52.404Z,99.99
2022-09-30T05:47:52.343Z,99.99
2022-09-30T05:48:52.332Z,99.99
2022-09-30T05:49:56.037Z,99.99
2022-09-30T05:50:52.315Z,99.99
2022-09-30T05:51:52.378Z,99.99
2022-09-30T05:52:52.308Z,99.99
2022-09-30T05:53:52.332Z,99.99
2022-09-30T05:54:52.305Z,98.13
2022-09-30T05:55:52.308Z,97.27
2022-09-30T05:56:52.306Z,96.51
2022-09-30T05:57:52.273Z,95.75
2022-09-30T05:58:52.273Z,94.41
2022-09-30T05:59:52.269Z,92.03
2022-09-30T06:00:52.261Z,90.41
2022-09-30T06:01:52.420Z,88.89
2022-09-30T06:02:52.341Z,87.51
2022-09-30T06:03:52.238Z,87.13
2022-09-30T06:04:52.246Z,86.46
2022-09-30T06:05:52.243Z,87.13
2022-09-30T06:06:52.232Z,86.36
2022-09-30T06:07:52.233Z,86.46
2022-09-30T06:08:52.225Z,87.18
2022-09-30T06:09:52.202Z,87.08
2022-09-30T06:10:52.423Z,87.18
2022-09-30T06:11:52.191Z,87.56
2022-09-30T06:12:52.201Z,87.46
2022-09-30T06:13:52.198Z,87.94
2022-09-30T06:14:52.757Z,87.75
2022-09-30T06:15:52.186Z,88.79
2022-09-30T06:16:52.269Z,88.79
2022-09-30T06:17:52.191Z,88.51
2022-09-30T06:18:52.174Z,89.08
2022-09-30T06:19:52.166Z,89.08
2022-09-30T06:20:52.147Z,89.75
2022-09-30T06:21:52.142Z,89.51
2022-09-30T06:22:52.137Z,89.37
2022-09-30T06:23:52.157Z,89.80
2022-09-30T06:24:55.126Z,89.84
2022-09-30T06:25:52.124Z,89.84
2022-09-30T06:26:52.121Z,89.70
2022-09-30T06:27:52.114Z,90.18
2022-09-30T06:28:52.114Z,90.08
2022-09-30T06:29:52.128Z,90.32
2022-09-30T06:30:52.106Z,90.66
2022-09-30T06:31:52.120Z,90.75
2022-09-30T06:32:52.100Z,90.37
2022-09-30T06:33:52.134Z,90.47
2022-09-30T06:34:52.758Z,90.61
2022-09-30T06:35:52.065Z,90.61
2022-09-30T06:36:52.080Z,90.51
2022-09-30T06:37:52.060Z,90.51
2022-09-30T06:38:52.052Z,90.84
2022-09-30T06:39:52.075Z,90.32
2022-09-30T06:40:52.043Z,90.61
2022-09-30T06:41:52.060Z,90.32
2022-09-30T06:42:52.037Z,90.42
2022-09-30T06:43:55.502Z,90.32
2022-09-30T06:44:53.594Z,90.80
2022-09-30T06:45:52.651Z,90.56
2022-09-30T06:46:54.175Z,90.51
2022-09-30T06:47:59.791Z,90.99
2022-09-30T06:48:53.631Z,90.99
2022-09-30T06:49:52.193Z,90.89
2022-09-30T06:51:00.550Z,91.22
2022-09-30T06:51:51.991Z,91.27
2022-09-30T06:52:52.052Z,91.13
2022-09-30T06:53:53.370Z,90.94
2022-09-30T06:54:51.977Z,91.46
2022-09-30T06:55:51.971Z,91.75
2022-09-30T06:56:51.993Z,91.37
2022-09-30T06:57:51.959Z,91.37
2022-09-30T06:58:51.958Z,91.65
2022-09-30T06:59:51.967Z,91.27
2022-09-30T07:00:51.996Z,91.46
2022-09-30T07:01:51.998Z,91.46
2022-09-30T07:02:51.984Z,91.08
2022-09-30T07:03:54.659Z,91.75
2022-09-30T07:04:51.934Z,91.37
2022-09-30T07:05:51.918Z,91.56
2022-09-30T07:06:51.916Z,91.27
2022-09-30T07:07:51.905Z,91.27
2022-09-30T07:08:51.952Z,91.37
2022-09-30T07:09:54.410Z,91.46
2022-09-30T07:10:51.912Z,91.27
2022-09-30T07:11:51.896Z,91.46
2022-09-30T07:12:51.890Z,92.70
2022-09-30T07:13:51.893Z,95.98
2022-09-30T07:14:51.927Z,97.51
2022-09-30T07:15:51.870Z,99.79
2022-09-30T07:16:52.797Z,99.99
2022-09-30T07:17:51.874Z,99.99
2022-09-30T07:18:51.908Z,99.99
2022-09-30T07:19:51.864Z,98.65
2022-09-30T07:20:52.978Z,97.08
2022-09-30T07:21:51.850Z,94.89
2022-09-30T07:22:52.759Z,93.41
2022-09-30T07:23:51.837Z,92.65
2022-09-30T07:24:51.829Z,91.21
2022-09-30T07:25:51.832Z,89.92
2022-09-30T07:26:51.839Z,87.96
2022-09-30T07:27:51.837Z,87.48
2022-09-30T07:28:51.831Z,86.76
2022-09-30T07:30:59.823Z,83.65
2022-09-30T07:31:51.842Z,81.59
2022-09-30T07:32:51.813Z,79.39
2022-09-30T07:33:51.805Z,77.80
2022-09-30T07:34:51.812Z,75.93
2022-09-30T07:35:51.799Z,74.11
2022-09-30T07:36:51.803Z,72.90
2022-09-30T07:37:51.807Z,71.08
2022-09-30T07:38:51.817Z,69.93
2022-09-30T07:39:51.817Z,69.10
2022-09-30T07:40:51.816Z,67.85
2022-09-30T07:41:52.773Z,67.95
2022-09-30T07:42:51.820Z,67.22
2022-09-30T07:43:51.843Z,65.88
2022-09-30T07:44:51.873Z,66.16
2022-09-30T07:45:53.026Z,65.97
2022-09-30T07:46:51.880Z,65.88
2022-09-30T07:47:53.855Z,65.05
2022-09-30T07:48:51.871Z,65.14
2022-09-30T07:49:51.978Z,64.95
2022-09-30T07:50:51.884Z,64.66
2022-09-30T07:51:51.894Z,64.50
2022-09-30T07:52:51.894Z,63.83
2022-09-30T07:53:51.910Z,63.54
2022-09-30T07:54:51.908Z,63.06
2022-09-30T07:55:51.988Z,62.81
2022-09-30T07:57:09.164Z,63.57
2022-09-30T07:57:51.944Z,62.42
2022-09-30T07:58:52.780Z,62.04
2022-09-30T07:59:51.961Z,62.42
2022-09-30T08:00:52.063Z,62.74
2022-09-30T08:01:52.067Z,61.40
2022-09-30T08:02:52.005Z,61.87
2022-09-30T08:03:52.003Z,61.40
2022-09-30T08:04:52.016Z,60.85
2022-09-30T08:05:52.040Z,59.76
2022-09-30T08:06:52.049Z,60.08
2022-09-30T08:07:52.058Z,60.66
2022-09-30T08:08:53.290Z,59.50
2022-09-30T08:09:52.142Z,59.31
2022-09-30T08:10:52.091Z,59.22
2022-09-30T08:11:52.109Z,59.69
2022-09-30T08:12:54.577Z,59.31
2022-09-30T08:13:52.135Z,59.79
2022-09-30T08:14:52.138Z,59.89
2022-09-30T08:15:52.158Z,59.89
2022-09-30T08:16:52.198Z,59.66
2022-09-30T08:17:52.187Z,60.53
2022-09-30T08:18:52.196Z,60.43
2022-09-30T08:19:52.198Z,60.91
2022-09-30T08:20:52.207Z,61.20
2022-09-30T08:21:52.328Z,61.17
2022-09-30T08:22:52.231Z,61.36
2022-09-30T08:23:52.246Z,61.75
2022-09-30T08:24:52.264Z,62.71
2022-09-30T08:25:53.619Z,63.35
2022-09-30T08:26:52.371Z,62.77
2022-09-30T08:27:52.381Z,62.39
2022-09-30T08:28:52.407Z,63.45
2022-09-30T08:29:58.255Z,63.54
2022-09-30T08:30:52.348Z,63.54
2022-09-30T08:31:52.475Z,63.35
2022-09-30T08:32:52.458Z,63.32
2022-09-30T08:33:53.818Z,63.12
2022-09-30T08:34:52.408Z,63.51
2022-09-30T08:35:52.401Z,63.32
2022-09-30T08:36:54.534Z,64.47
2022-09-30T08:37:52.403Z,64.56
2022-09-30T08:38:52.407Z,65.52
2022-09-30T08:39:54.340Z,66.10
2022-09-30T08:40:52.440Z,65.39
2022-09-30T08:41:52.439Z,65.30
2022-09-30T08:42:55.534Z,65.91
2022-09-30T08:43:52.459Z,66.58
2022-09-30T08:44:52.451Z,65.91
2022-09-30T08:45:52.539Z,66.00
2022-09-30T08:46:57.441Z,66.35
2022-09-30T08:47:52.475Z,66.55
2022-09-30T08:48:52.472Z,65.97
2022-09-30T08:49:52.494Z,65.97
2022-09-30T08:50:52.511Z,66.06
2022-09-30T08:51:52.492Z,66.45
2022-09-30T08:52:52.497Z,66.26
2022-09-30T08:53:52.498Z,66.55
2022-09-30T08:54:52.578Z,66.93
2022-09-30T08:55:52.509Z,67.60
2022-09-30T08:56:52.530Z,67.99
2022-09-30T08:57:52.524Z,68.14
2022-09-30T08:58:52.514Z,68.05
2022-09-30T08:59:52.527Z,68.43
2022-09-30T09:00:52.564Z,68.43
2022-09-30T09:01:52.562Z,68.33
2022-09-30T09:02:52.592Z,68.33
2022-09-30T09:03:52.562Z,68.72
2022-09-30T09:04:52.533Z,67.76
2022-09-30T09:05:52.791Z,68.24
2022-09-30T09:06:52.546Z,68.05
2022-09-30T09:07:52.548Z,67.76
2022-09-30T09:08:52.531Z,67.85
2022-09-30T09:09:52.534Z,67.85
2022-09-30T09:10:53.437Z,67.38
2022-09-30T09:11:52.569Z,67.66
2022-09-30T09:12:52.541Z,68.11
2022-09-30T09:13:52.537Z,68.33
2022-09-30T09:14:52.541Z,67.72
2022-09-30T09:15:52.549Z,68.14
2022-09-30T09:16:52.601Z,68.59
2022-09-30T09:18:18.189Z,68.78
2022-09-30T09:18:52.546Z,68.97
2022-09-30T09:19:52.553Z,69.07
2022-09-30T09:20:52.568Z,68.97
2022-09-30T09:21:53.850Z,68.68
2022-09-30T09:22:52.556Z,68.11
2022-09-30T09:23:52.550Z,68.40
2022-09-30T09:24:52.548Z,68.87
2022-09-30T09:25:52.550Z,69.54
2022-09-30T09:26:52.558Z,70.03
2022-09-30T09:27:52.610Z,69.83
2022-09-30T09:28:53.773Z,69.54
2022-09-30T09:29:52.569Z,69.83
2022-09-30T09:30:52.549Z,69.74
2022-09-30T09:31:52.581Z,69.17
2022-09-30T09:32:52.626Z,69.83
2022-09-30T09:33:52.552Z,69.74
2022-09-30T09:34:52.556Z,70.41
2022-09-30T09:35:52.551Z,69.93
2022-09-30T09:36:52.547Z,69.64
2022-09-30T09:37:52.575Z,70.31
2022-09-30T09:38:52.550Z,69.17
2022-09-30T09:39:52.554Z,69.83
2022-09-30T09:40:56.380Z,70.03
2022-09-30T09:41:52.562Z,70.70
2022-09-30T09:42:52.571Z,70.15
2022-09-30T09:43:52.573Z,70.06
2022-09-30T09:44:52.595Z,69.07
2022-09-30T09:45:52.597Z,69.17
2022-09-30T09:46:52.591Z,69.64
2022-09-30T09:47:52.560Z,69.20
2022-09-30T09:48:52.550Z,68.49
2022-09-30T09:49:56.788Z,69.93
2022-09-30T09:50:52.549Z,69.54
2022-09-30T09:51:52.581Z,71.02
2022-09-30T09:52:52.590Z,69.68
2022-09-30T09:53:52.559Z,68.81
2022-09-30T09:54:52.587Z,67.66
2022-09-30T09:55:53.838Z,67.38
2022-09-30T09:56:52.563Z,67.76
2022-09-30T09:57:53.407Z,68.05
2022-09-30T09:58:52.550Z,68.24
2022-09-30T09:59:52.560Z,68.14
2022-09-30T10:00:52.577Z,69.01
2022-09-30T10:01:54.481Z,68.59
2022-09-30T10:02:52.540Z,68.49
2022-09-30T10:03:52.542Z,69.07
2022-09-30T10:04:52.560Z,69.58
2022-09-30T10:05:52.568Z,69.07
2022-09-30T10:06:52.540Z,68.49
2022-09-30T10:07:52.544Z,68.81
2022-09-30T10:08:52.541Z,69.17
2022-09-30T10:09:52.531Z,69.87
2022-09-30T10:10:54.346Z,69.26
2022-09-30T10:11:52.538Z,67.82
2022-09-30T10:12:52.547Z,66.96
2022-09-30T10:13:52.533Z,66.19
2022-09-30T10:14:52.542Z,65.81
2022-09-30T10:15:52.572Z,66.29
2022-09-30T10:16:52.532Z,66.67
2022-09-30T10:17:52.547Z,67.05
2022-09-30T10:18:52.554Z,66.48
2022-09-30T10:19:52.545Z,66.38
2022-09-30T10:20:52.528Z,66.54
2022-09-30T10:21:55.305Z,66.83
2022-09-30T10:22:52.558Z,67.02
2022-09-30T10:23:52.528Z,66.83
2022-09-30T10:24:52.534Z,66.64
2022-09-30T10:25:52.525Z,67.21
2022-09-30T10:26:52.533Z,67.79
2022-09-30T10:27:52.564Z,68.07
2022-09-30T10:28:52.521Z,68.27
2022-09-30T10:29:52.533Z,68.07
2022-09-30T10:30:52.540Z,68.17
2022-09-30T10:31:56.053Z,68.74
2022-09-30T10:32:52.520Z,68.94
2022-09-30T10:33:52.519Z,68.65
2022-09-30T10:34:52.520Z,68.07
2022-09-30T10:35:52.567Z,67.88
2022-09-30T10:36:53.847Z,67.79
2022-09-30T10:37:52.530Z,68.07
2022-09-30T10:38:52.522Z,68.55
2022-09-30T10:39:52.520Z,69.29
2022-09-30T10:40:52.518Z,69.09
2022-09-30T10:41:52.536Z,69.09
2022-09-30T10:42:52.544Z,69.57
2022-09-30T10:43:52.516Z,69.57
2022-09-30T10:44:52.514Z,69.38
2022-09-30T10:46:13.482Z,69.19
2022-09-30T10:46:52.593Z,69.76
2022-09-30T10:47:52.521Z,69.51
2022-09-30T10:48:52.518Z,68.52
2022-09-30T10:49:52.509Z,68.23
2022-09-30T10:50:52.518Z,68.04
2022-09-30T10:51:52.504Z,67.85
2022-09-30T10:52:52.519Z,67.94
2022-09-30T10:53:52.508Z,68.71
2022-09-30T10:54:52.506Z,69.29
2022-09-30T10:55:52.513Z,69.19
2022-09-30T10:56:52.496Z,68.80
2022-09-30T10:57:52.500Z,68.13
2022-09-30T10:58:52.593Z,67.47
2022-09-30T10:59:52.504Z,66.51
2022-09-30T11:00:52.549Z,66.61
2022-09-30T11:01:55.046Z,66.61
2022-09-30T11:02:53.990Z,66.70
2022-09-30T11:03:52.540Z,66.80
2022-09-30T11:04:52.502Z,67.27
2022-09-30T11:05:52.490Z,67.66
2022-09-30T11:06:52.495Z,67.47
2022-09-30T11:07:52.508Z,68.33
2022-09-30T11:08:52.486Z,69.00
2022-09-30T11:09:52.497Z,69.09
2022-09-30T11:10:53.916Z,69.00
2022-09-30T11:11:52.490Z,68.94
2022-09-30T11:12:52.486Z,69.76
2022-09-30T11:13:52.509Z,69.19
2022-09-30T11:14:52.483Z,69.09
2022-09-30T11:15:52.553Z,69.00
2022-09-30T11:16:52.592Z,69.03
2022-09-30T11:17:52.480Z,69.09
2022-09-30T11:18:52.491Z,68.33
2022-09-30T11:19:52.504Z,67.85
2022-09-30T11:20:52.478Z,68.04
2022-09-30T11:21:52.492Z,67.47
2022-09-30T11:22:52.481Z,66.32
2022-09-30T11:23:52.477Z,65.84
2022-09-30T11:24:52.469Z,66.03
2022-09-30T11:25:52.477Z,66.13
2022-09-30T11:26:52.473Z,66.06
2022-09-30T11:27:52.558Z,66.06
2022-09-30T11:28:52.466Z,66.03
2022-09-30T11:29:52.474Z,65.88
2022-09-30T11:30:52.820Z,65.84
2022-09-30T11:31:52.524Z,65.78
2022-09-30T11:32:52.478Z,65.20
2022-09-30T11:33:52.467Z,65.20
2022-09-30T11:34:52.465Z,65.49
2022-09-30T11:35:52.475Z,65.68
2022-09-30T11:36:52.457Z,65.88
2022-09-30T11:37:52.451Z,66.06
2022-09-30T11:38:52.457Z,65.78
2022-09-30T11:39:52.462Z,65.78
2022-09-30T11:40:52.455Z,65.49
2022-09-30T11:41:52.447Z,65.49
2022-09-30T11:42:52.458Z,64.72
2022-09-30T11:43:52.452Z,64.15
2022-09-30T11:44:54.870Z,64.15
2022-09-30T11:45:52.511Z,64.15
2022-09-30T11:46:52.447Z,63.86
2022-09-30T11:47:52.455Z,64.34
2022-09-30T11:48:52.447Z,63.96
2022-09-30T11:49:52.447Z,63.39
2022-09-30T11:50:52.444Z,63.29
2022-09-30T11:51:52.523Z,62.81
2022-09-30T11:52:52.469Z,62.81
2022-09-30T11:53:52.452Z,62.71
2022-09-30T11:54:52.440Z,62.90
2022-09-30T11:55:52.438Z,63.00
2022-09-30T11:56:52.436Z,63.00
2022-09-30T11:57:52.437Z,63.29
2022-09-30T11:58:52.438Z,64.15
2022-09-30T11:59:52.439Z,64.34
2022-09-30T12:00:52.445Z,63.96
2022-09-30T12:01:52.473Z,64.05
2022-09-30T12:02:52.470Z,64.34
2022-09-30T12:03:52.447Z,64.25
2022-09-30T12:04:52.443Z,64.43
2022-09-30T12:05:52.435Z,64.43
2022-09-30T12:06:52.453Z,64.82
2022-09-30T12:07:52.427Z,64.72
2022-09-30T12:08:52.423Z,64.92
2022-09-30T12:09:52.438Z,65.68
2022-09-30T12:10:53.883Z,64.72
2022-09-30T12:11:52.419Z,64.43
2022-09-30T12:12:52.420Z,64.43
2022-09-30T12:13:52.439Z,63.86
2022-09-30T12:14:52.424Z,63.29
2022-09-30T12:15:52.426Z,63.67
2022-09-30T12:16:52.484Z,63.96
2022-09-30T12:17:52.464Z,64.43
2022-09-30T12:18:52.415Z,63.96
2022-09-30T12:19:52.417Z,63.48
2022-09-30T12:20:52.420Z,63.57
2022-09-30T12:21:52.431Z,62.90
2022-09-30T12:22:52.416Z,62.62
2022-09-30T12:23:52.421Z,63.39
2022-09-30T12:24:52.436Z,63.19
2022-09-30T12:25:52.423Z,63.39
2022-09-30T12:26:52.416Z,63.29
2022-09-30T12:27:52.438Z,63.00
2022-09-30T12:28:52.418Z,63.10
2022-09-30T12:29:52.432Z,63.48
2022-09-30T12:30:52.409Z,63.76
2022-09-30T12:31:52.530Z,63.67
2022-09-30T12:32:52.401Z,63.67
2022-09-30T12:33:52.415Z,63.19
2022-09-30T12:34:52.405Z,63.10
2022-09-30T12:35:52.413Z,63.19
2022-09-30T12:36:52.398Z,63.39
2022-09-30T12:37:52.392Z,63.19
2022-09-30T12:38:52.406Z,63.39
2022-09-30T12:39:52.408Z,63.10
2022-09-30T12:40:53.009Z,63.67
2022-09-30T12:41:52.401Z,64.82
2022-09-30T12:42:52.396Z,66.25
2022-09-30T12:43:52.419Z,65.39
2022-09-30T12:44:52.404Z,65.49
2022-09-30T12:45:52.430Z,67.31
2022-09-30T12:46:52.894Z,67.31
2022-09-30T12:47:52.392Z,68.21
2022-09-30T12:48:52.393Z,67.44
2022-09-30T12:49:52.390Z,65.81
2022-09-30T12:50:52.445Z,65.91
2022-09-30T12:51:52.381Z,66.09
2022-09-30T12:52:52.396Z,65.23
2022-09-30T12:53:52.391Z,65.23